Terminal Aerodrome Forecast
Issued by NWS Wilmington, OH

Current Version | Previous Version | Graphics & Text | Print | Product List | Glossary On
Versions: 1 2 3 4 5 6 7 8 9 10 11 12 13 14 15 16 17 18 19 20 21 22 23 24 25 26 27 28
166
FTUS41 KILN 190905 AAA
TAFDAY
TAF AMD
KDAY 190905Z 1909/2006 22004KT 2SM BR OVC005
      TEMPO 1909/1912 3SM BR OVC008
     FM191200 VRB03KT P6SM OVC250
     FM191600 14005KT P6SM OVC250
     FM192000 11007KT P6SM OVC090
     FM200300 10008KT 4SM -RA OVC015=

USA.gov is the U.S. government's official web portal to all federal, state and local government web resources and services.